CheckWX is a tool to help pilots better visualize weather data.  It is not intended as a substitute for an official pre-flight weather briefing.

08:03:05 UTC

LIPI TAF
Rivolto Air Base Airport
Codroipo, Italy
TAF LIPI 190500Z 1906/1915 02006KT 9999 SCT090

Mar-19@
06:00 UTC

Mar-19 @ 06:00 UTC

Mar-19@
15:00 UTC

Mar-19 @ 15:00 UTC

TAF LIPI 190500Z 1906/1915 02006KT 9999 SCT090
Wind
  • 020° at 6 KTS
Cloud Levels
  • Scattered at 9,000' AGL